Time;durP1;ratioP1;P1;durP2;ratioP2;P2;SDS_P1;SDS_P2;PMS_P1;PMS_P2;Temp;Humidity;BMP_temperature;BMP_pressure;BME280_temperature;BME280_humidity;BME280_pressure;Samples;Min_cycle;Max_cycle;Signal;HPM_P1;HPM_P2
2021/07/15 00:00:29;;;;;;;22.05;6.00;;;;;;;17.93;100.00;100803.80;1712243;82;20957;-39
2021/07/15 00:02:56;;;;;;;20.15;5.65;;;;;;;17.89;100.00;100804.02;1712661;83;20984;-39
2021/07/15 00:05:24;;;;;;;16.73;5.40;;;;;;;17.84;100.00;100805.52;1710299;82;21043;-38
2021/07/15 00:07:51;;;;;;;33.80;5.65;;;;;;;17.76;100.00;100800.61;1713007;82;21600;-40
2021/07/15 00:10:38;;;;;;;47.33;6.30;;;;;;;17.74;100.00;100800.30;1711710;82;20975;-40
2021/07/15 00:13:07;;;;;;;81.10;8.43;;;;;;;17.73;100.00;100792.05;1704005;83;21401;-39
2021/07/15 00:15:38;;;;;;;74.95;10.08;;;;;;;17.73;100.00;100795.98;1701551;83;21625;-39
2021/07/15 00:18:06;;;;;;;89.42;10.10;;;;;;;17.72;100.00;100795.12;1669489;85;21037;-39
2021/07/15 00:20:39;;;;;;;93.60;11.85;;;;;;;17.71;100.00;100794.72;1719230;82;21279;-39
2021/07/15 00:23:07;;;;;;;146.85;13.83;;;;;;;17.73;100.00;100790.27;1712057;83;21004;-39
2021/07/15 00:25:35;;;;;;;111.80;11.80;;;;;;;17.76;100.00;100786.20;1671326;85;21357;-40
2021/07/15 00:28:04;;;;;;;152.45;16.00;;;;;;;17.74;100.00;100788.05;1713142;83;20988;-39
2021/07/15 00:30:32;;;;;;;129.10;15.75;;;;;;;17.71;100.00;100792.11;1710963;82;21000;-39
2021/07/15 00:32:59;;;;;;;145.75;16.37;;;;;;;17.71;100.00;100785.56;1672603;84;21096;-38
2021/07/15 00:35:27;;;;;;;144.07;17.48;;;;;;;17.71;100.00;100788.66;1712755;83;20984;-39
2021/07/15 00:37:53;;;;;;;199.97;19.25;;;;;;;17.68;100.00;100793.55;1672778;85;20984;-38
2021/07/15 00:40:19;;;;;;;161.92;18.32;;;;;;;17.63;100.00;100790.28;1710212;82;21007;-39
2021/07/15 00:42:47;;;;;;;191.88;22.13;;;;;;;17.58;100.00;100784.41;1716660;83;20996;-40
2021/07/15 00:45:17;;;;;;;175.50;19.65;;;;;;;17.52;100.00;100785.03;1717643;83;20995;-38
2021/07/15 00:47:48;;;;;;;155.18;18.20;;;;;;;17.50;100.00;100785.56;1719308;83;21125;-39
2021/07/15 00:50:19;;;;;;;172.62;18.70;;;;;;;17.49;100.00;100786.48;1718008;82;21050;-39
2021/07/15 00:52:47;;;;;;;144.37;15.35;;;;;;;17.45;100.00;100788.84;1719347;83;20984;-38
2021/07/15 00:55:21;;;;;;;123.75;14.90;;;;;;;17.46;100.00;100787.08;1716764;83;21055;-39
2021/07/15 00:57:49;;;;;;;142.75;15.58;;;;;;;17.43;100.00;100791.11;1719102;83;20897;-39
2021/07/15 01:00:17;;;;;;;121.87;13.62;;;;;;;17.40;100.00;100786.88;1719982;83;21208;-39
2021/07/15 01:02:43;;;;;;;107.22;14.25;;;;;;;17.43;100.00;100793.73;1685747;84;20983;-39
2021/07/15 01:05:18;;;;;;;106.35;14.43;;;;;;;17.43;100.00;100785.44;1719242;82;21076;-39
2021/07/15 01:07:44;;;;;;;77.62;11.45;;;;;;;17.44;100.00;100788.44;1720020;83;21560;-39
2021/07/15 01:10:13;;;;;;;83.00;9.98;;;;;;;17.43;100.00;100789.36;1700177;83;21538;-39
2021/07/15 01:13:00;;;;;;;59.10;8.90;;;;;;;17.41;100.00;100784.65;1708429;83;21116;-39
2021/07/15 01:16:06;;;;;;;43.08;7.20;;;;;;;17.36;100.00;100781.38;1719040;82;20964;-40
2021/07/15 01:18:53;;;;;;;21.75;4.85;;;;;;;17.27;100.00;100783.05;1692042;84;20972;-39
2021/07/15 01:21:49;;;;;;;25.52;5.42;;;;;;;17.18;100.00;100787.76;1719512;83;20992;-40
2021/07/15 01:25:01;;;;;;;26.02;4.45;;;;;;;17.10;100.00;100784.61;1719217;83;21015;-39
2021/07/15 01:27:39;;;;;;;41.48;5.12;;;;;;;17.01;100.00;100779.73;1719684;83;21145;-39
2021/07/15 01:30:10;;;;;;;27.02;4.33;;;;;;;16.96;100.00;100785.14;1714504;83;21046;-40
2021/07/15 01:33:03;;;;;;;40.80;6.62;;;;;;;16.94;100.00;100789.11;1719908;83;20988;-40
2021/07/15 01:36:05;;;;;;;62.73;8.50;;;;;;;16.91;100.00;100783.14;1715201;82;21023;-39
2021/07/15 01:38:48;;;;;;;43.80;7.42;;;;;;;16.92;100.00;100784.84;1715928;82;20979;-39
2021/07/15 01:41:32;;;;;;;52.60;9.03;;;;;;;16.93;100.00;100780.88;1715501;82;21147;-40
2021/07/15 01:44:04;;;;;;;87.75;10.88;;;;;;;16.95;100.00;100788.20;1698486;83;21584;-39
2021/07/15 01:46:31;;;;;;;65.60;9.75;;;;;;;16.92;100.00;100786.15;1714673;83;21007;-40
2021/07/15 01:48:58;;;;;;;105.60;12.10;;;;;;;16.92;100.00;100784.40;1720374;83;21541;-38
2021/07/15 01:51:24;;;;;;;97.67;11.97;;;;;;;16.92;100.00;100781.78;1719822;83;20995;-39
2021/07/15 01:53:52;;;;;;;81.47;10.60;;;;;;;16.98;100.00;100783.75;1674229;83;21149;-39
2021/07/15 01:56:19;;;;;;;85.53;10.35;;;;;;;17.00;100.00;100781.95;1717566;83;21724;-38
2021/07/15 01:58:46;;;;;;;64.32;11.75;;;;;;;17.05;100.00;100778.70;1685483;85;21043;-39
2021/07/15 02:01:13;;;;;;;57.80;11.83;;;;;;;17.08;100.00;100771.59;1720124;83;20956;-39
2021/07/15 02:03:44;;;;;;;72.20;11.85;;;;;;;17.13;100.00;100778.39;1717891;83;21019;-39
2021/07/15 02:06:11;;;;;;;66.72;10.13;;;;;;;17.14;100.00;100781.39;1717259;83;21569;-37
2021/07/15 02:08:37;;;;;;;72.40;10.03;;;;;;;17.15;100.00;100785.72;1720606;83;20925;-38
2021/07/15 02:11:06;;;;;;;54.25;8.50;;;;;;;17.14;100.00;100788.80;1719897;82;21111;-38
2021/07/15 02:13:34;;;;;;;51.08;9.25;;;;;;;17.18;100.00;100791.68;1698046;83;21581;-37
2021/07/15 02:16:04;;;;;;;62.03;7.85;;;;;;;17.18;100.00;100790.38;1719000;82;21046;-37
2021/07/15 02:18:33;;;;;;;64.15;7.72;;;;;;;17.15;100.00;100789.64;1717784;83;21936;-39
2021/07/15 02:20:59;;;;;;;77.17;7.65;;;;;;;17.09;100.00;100795.99;1719450;82;21019;-39
2021/07/15 02:23:28;;;;;;;53.38;6.62;;;;;;;17.06;100.00;100788.27;1699893;83;20992;-38
2021/07/15 02:25:56;;;;;;;53.52;6.55;;;;;;;17.04;100.00;100787.45;1720122;83;20936;-39
2021/07/15 02:28:25;;;;;;;54.18;7.20;;;;;;;17.01;100.00;100788.89;1715290;83;21505;-39
2021/07/15 02:30:56;;;;;;;41.23;5.65;;;;;;;16.98;100.00;100794.21;1718961;83;21134;-40
2021/07/15 02:33:26;;;;;;;43.87;5.50;;;;;;;16.95;100.00;100793.42;1723505;82;21597;-40
2021/07/15 02:35:55;;;;;;;49.25;5.95;;;;;;;16.93;100.00;100795.72;1698541;83;20935;-40
2021/07/15 02:38:22;;;;;;;32.95;5.28;;;;;;;16.93;100.00;100793.94;1744940;82;21585;-39
2021/07/15 02:40:52;;;;;;;48.33;5.20;;;;;;;16.94;100.00;100790.41;1720248;83;20976;-40
2021/07/15 02:43:21;;;;;;;42.80;5.62;;;;;;;16.94;100.00;100794.34;1719895;83;21961;-39
2021/07/15 02:45:49;;;;;;;35.58;5.90;;;;;;;16.99;100.00;100798.56;1719985;83;21514;-39
2021/07/15 02:48:17;;;;;;;39.85;5.97;;;;;;;17.03;100.00;100802.31;1719598;83;21000;-39
2021/07/15 02:50:44;;;;;;;25.23;4.70;;;;;;;17.06;100.00;100796.12;1717083;83;21482;-39
2021/07/15 02:53:10;;;;;;;33.85;4.85;;;;;;;17.09;100.00;100795.52;1719350;83;20976;-39
2021/07/15 02:55:41;;;;;;;46.00;5.10;;;;;;;17.15;100.00;100793.12;1701410;83;21097;-38
2021/07/15 02:58:14;;;;;;;27.73;5.08;;;;;;;17.20;100.00;100791.16;1719503;82;20979;-39
2021/07/15 03:00:53;;;;;;;27.27;4.85;;;;;;;17.27;100.00;100798.75;1719393;83;21023;-40
2021/07/15 03:04:00;;;;;;;31.85;5.00;;;;;;;17.33;100.00;100797.20;1713610;83;20992;-39
2021/07/15 03:06:36;;;;;;;;;;;;;;;17.42;100.00;100802.05;1714601;83;21007;-38
2021/07/15 03:09:11;;;;;;;;;;;;;;;17.52;100.00;100802.52;1717610;83;20130;-38
2021/07/15 03:11:44;;;;;;;31.00;6.33;;;;;;;17.63;100.00;100805.52;1718682;83;20119;-39
2021/07/15 03:14:11;;;;;;;35.38;5.60;;;;;;;17.75;100.00;100802.83;1719597;83;20916;-38
2021/07/15 03:16:40;;;;;;;27.40;5.45;;;;;;;17.88;100.00;100806.24;1719856;83;21031;-40
2021/07/15 03:19:06;;;;;;;29.98;5.35;;;;;;;17.96;100.00;100808.06;1719880;83;20912;-40
2021/07/15 03:21:32;;;;;;;28.12;4.42;;;;;;;18.02;100.00;100809.13;1717796;83;21126;-38
2021/07/15 03:24:01;;;;;;;32.20;5.65;;;;;;;18.08;100.00;100806.70;1697383;83;21446;-40
2021/07/15 03:26:27;;;;;;;31.00;4.92;;;;;;;18.18;100.00;100802.73;1699095;83;21557;-39
2021/07/15 03:28:54;;;;;;;27.42;5.60;;;;;;;18.28;100.00;100800.55;1719791;83;21035;-39
2021/07/15 03:31:22;;;;;;;25.52;5.42;;;;;;;18.41;100.00;100805.25;1719701;83;21022;-38
2021/07/15 03:33:50;;;;;;;40.90;6.58;;;;;;;18.54;100.00;100799.81;1701209;83;21145;-40
2021/07/15 03:36:16;;;;;;;33.55;5.65;;;;;;;18.66;100.00;100799.70;1693076;83;20967;-40
2021/07/15 03:38:43;;;;;;;36.80;5.45;;;;;;;18.79;100.00;100800.84;1718143;82;20885;-39
2021/07/15 03:41:10;;;;;;;31.90;5.30;;;;;;;18.91;100.00;100804.65;1720000;82;21082;-40
2021/07/15 03:43:37;;;;;;;39.67;5.78;;;;;;;19.04;100.00;100807.56;1711354;83;20948;-39
2021/07/15 03:46:05;;;;;;;40.70;5.75;;;;;;;19.18;100.00;100809.52;1701614;83;20956;-39
2021/07/15 03:48:32;;;;;;;28.35;5.80;;;;;;;19.33;100.00;100809.69;1711243;83;20984;-40
2021/07/15 03:51:03;;;;;;;49.05;6.25;;;;;;;19.50;100.00;100812.30;1709771;82;20976;-40
2021/07/15 03:53:30;;;;;;;33.85;6.05;;;;;;;19.73;100.00;100812.91;1711264;82;20945;-40
2021/07/15 03:58:13;;;;;;;51.33;6.97;;;;;;;20.38;100.00;100813.95;1782544;79;22630;-41
2021/07/15 04:00:45;;;;;;;47.78;7.78;;;;;;;20.69;100.00;100812.26;1766089;80;21030;-40
2021/07/15 04:03:10;;;;;;;60.70;7.15;;;;;;;21.01;100.00;100809.66;1756789;80;21322;-40
2021/07/15 04:05:38;;;;;;;57.95;7.97;;;;;;;21.41;100.00;100809.13;1762967;80;20943;-39
2021/07/15 04:08:05;;;;;;;63.78;8.48;;;;;;;21.75;100.00;100809.78;1677579;82;21724;-40
2021/07/15 04:10:32;;;;;;;52.20;7.25;;;;;;;22.15;100.00;100813.09;1727948;81;21019;-40
2021/07/15 04:12:59;;;;;;;61.70;7.87;;;;;;;22.57;100.00;100809.20;1721609;82;20963;-40
2021/07/15 04:15:59;;;;;;;50.80;6.92;;;;;;;22.95;100.00;100801.94;1708214;82;20999;-42
2021/07/15 04:18:34;;;;;;;50.23;6.97;;;;;;;23.32;100.00;100807.07;1708913;82;20998;-39
2021/07/15 04:21:00;;;;;;;37.73;6.55;;;;;;;23.86;100.00;100802.56;1724886;82;20994;-41
2021/07/15 04:23:30;;;;;;;57.73;6.92;;;;;;;24.30;100.00;100806.56;1709825;82;22282;-41
2021/07/15 04:25:58;;;;;;;95.40;8.45;;;;;;;24.67;99.11;100806.58;1709473;82;21034;-41
2021/07/15 04:28:25;;;;;;;66.30;7.40;;;;;;;25.07;96.63;100805.94;1729365;82;21115;-42
2021/07/15 04:31:24;;;;;;;68.67;8.20;;;;;;;25.38;94.34;100811.10;1712047;82;21671;-40
2021/07/15 04:33:51;;;;;;;105.12;10.65;;;;;;;25.68;91.04;100811.07;1708360;82;21038;-40
2021/07/15 04:36:17;;;;;;;97.80;8.80;;;;;;;26.08;88.14;100811.09;1707499;82;21042;-38
2021/07/15 04:38:44;;;;;;;47.85;6.60;;;;;;;26.43;84.40;100816.41;1707478;82;21038;-41
2021/07/15 04:41:11;;;;;;;29.42;4.15;;;;;;;26.67;79.91;100814.43;1741858;81;21122;-39
2021/07/15 04:43:39;;;;;;;36.08;5.87;;;;;;;26.91;72.42;100816.55;1739034;81;20983;-37
2021/07/15 04:46:06;;;;;;;33.38;6.08;;;;;;;27.13;71.45;100818.26;1721280;81;21047;-38
2021/07/15 04:48:32;;;;;;;29.18;4.70;;;;;;;27.44;70.37;100818.83;1723793;81;21574;-40
2021/07/15 04:50:59;;;;;;;29.27;4.20;;;;;;;27.61;64.73;100815.63;1726906;81;21018;-42
2021/07/15 04:53:26;;;;;;;26.20;4.95;;;;;;;27.71;60.86;100818.34;1727004;81;21083;-41
2021/07/15 04:55:55;;;;;;;29.25;4.50;;;;;;;27.76;59.57;100820.58;1712645;81;21019;-41
2021/07/15 04:58:23;;;;;;;17.45;4.80;;;;;;;27.60;60.68;100822.39;1720228;82;21011;-40
2021/07/15 05:00:51;;;;;;;16.85;4.05;;;;;;;27.50;61.71;100828.46;1692132;84;20995;-39
2021/07/15 05:03:35;;;;;;;18.62;4.70;;;;;;;27.59;62.82;100823.36;1727592;82;21003;-38
2021/07/15 05:06:04;;;;;;;29.48;5.03;;;;;;;27.70;61.37;100815.80;1715806;82;21135;-40
2021/07/15 05:08:33;;;;;;;18.30;4.62;;;;;;;27.77;59.23;100823.12;1718513;82;20988;-40
2021/07/15 05:11:00;;;;;;;29.42;4.97;;;;;;;27.80;58.53;100826.84;1728801;82;21171;-40
2021/07/15 05:13:28;;;;;;;24.45;4.97;;;;;;;27.91;60.11;100821.92;1717790;82;20950;-40
2021/07/15 05:15:55;;;;;;;27.67;5.90;;;;;;;28.12;60.93;100817.05;1722453;82;20980;-40
2021/07/15 05:18:21;;;;;;;23.62;5.87;;;;;;;28.31;59.84;100821.61;1726298;82;22117;-38
2021/07/15 05:20:49;;;;;;;29.50;6.08;;;;;;;28.49;59.00;100818.30;1727780;82;21490;-41
2021/07/15 05:23:16;;;;;;;20.85;6.58;;;;;;;28.76;59.28;100819.45;1722687;82;21114;-40
2021/07/15 05:25:44;;;;;;;28.70;6.53;;;;;;;29.03;58.24;100813.96;1719957;82;21077;-40
2021/07/15 05:28:11;;;;;;;19.65;5.65;;;;;;;29.37;58.38;100810.83;1726326;82;21000;-41
2021/07/15 05:30:40;;;;;;;24.60;5.78;;;;;;;29.67;58.48;100809.81;1725959;82;21671;-40
2021/07/15 05:33:08;;;;;;;16.85;5.70;;;;;;;29.90;56.80;100813.45;1720114;82;21003;-40
2021/07/15 05:35:34;;;;;;;17.12;5.40;;;;;;;30.15;55.83;100812.46;1725329;82;21054;-40
2021/07/15 05:38:04;;;;;;;26.33;5.10;;;;;;;30.33;54.72;100815.16;1719004;81;21027;-40
2021/07/15 05:40:30;;;;;;;12.05;4.80;;;;;;;30.50;53.83;100820.70;1718731;82;20968;-40
2021/07/15 05:42:57;;;;;;;11.93;4.80;;;;;;;30.66;53.47;100814.20;1724319;82;21129;-41
2021/07/15 05:45:24;;;;;;;19.75;5.62;;;;;;;30.77;52.80;100818.98;1717161;82;21086;-40
2021/07/15 05:47:50;;;;;;;24.67;5.35;;;;;;;30.70;51.45;100817.92;1707810;82;21538;-45
2021/07/15 05:50:17;;;;;;;16.35;5.12;;;;;;;30.71;52.52;100822.28;1727797;82;21047;-40
2021/07/15 05:52:43;;;;;;;19.17;6.10;;;;;;;30.78;53.01;100827.34;1731371;82;20955;-41
2021/07/15 05:55:11;;;;;;;23.55;5.05;;;;;;;30.91;52.81;100823.78;1714847;82;21158;-40
2021/07/15 05:57:39;;;;;;;19.55;5.28;;;;;;;31.03;52.28;100822.22;1728018;82;21095;-40
2021/07/15 06:00:09;;;;;;;9.83;5.03;;;;;;;31.16;50.98;100819.98;1669045;85;21000;-41
2021/07/15 06:02:35;;;;;;;10.58;4.65;;;;;;;31.32;52.42;100815.79;1731944;81;22186;-40
2021/07/15 06:05:03;;;;;;;14.25;4.78;;;;;;;31.51;51.81;100816.93;1694824;83;20989;-41
2021/07/15 06:07:30;;;;;;;10.95;4.50;;;;;;;31.65;49.80;100815.99;1719044;82;21945;-41
2021/07/15 06:09:57;;;;;;;14.75;4.33;;;;;;;31.76;49.06;100818.44;1726042;82;20984;-39
2021/07/15 06:12:23;;;;;;;8.50;3.80;;;;;;;31.81;48.37;100816.13;1718688;82;20907;-40
2021/07/15 06:14:50;;;;;;;12.43;4.20;;;;;;;31.82;47.61;100799.55;1735971;82;20964;-39
2021/07/15 06:17:17;;;;;;;10.32;4.22;;;;;;;31.90;47.27;100808.12;1704116;83;21063;-39
2021/07/15 06:19:45;;;;;;;9.85;3.83;;;;;;;31.98;47.19;100807.33;1740910;81;21525;-39
2021/07/15 06:22:12;;;;;;;9.38;3.67;;;;;;;32.06;46.86;100802.00;1674099;83;20953;-43
2021/07/15 06:24:38;;;;;;;8.78;3.02;;;;;;;32.05;46.75;100803.85;1718315;83;21644;-39
2021/07/15 06:27:05;;;;;;;5.47;3.20;;;;;;;32.00;45.06;100797.30;1728141;82;20991;-40
2021/07/15 06:29:33;;;;;;;12.70;4.15;;;;;;;31.81;44.82;100789.37;1739787;82;20905;-41
2021/07/15 06:31:59;;;;;;;5.20;2.75;;;;;;;31.62;44.88;100794.43;1721519;82;21139;-41
2021/07/15 06:34:26;;;;;;;10.45;3.30;;;;;;;31.62;45.57;100793.58;1712267;82;21585;-40
2021/07/15 06:36:53;;;;;;;8.25;2.90;;;;;;;31.54;45.86;100788.53;1723285;82;21036;-40
2021/07/15 06:39:20;;;;;;;2.67;2.37;;;;;;;31.45;43.12;100786.82;1714860;83;21545;-40
2021/07/15 06:41:46;;;;;;;8.48;2.25;;;;;;;31.36;42.65;100789.94;1723913;82;21005;-40
2021/07/15 06:44:13;;;;;;;7.10;2.87;;;;;;;31.34;43.47;100788.40;1724374;82;21084;-41
2021/07/15 06:46:41;;;;;;;8.03;2.27;;;;;;;31.30;42.69;100789.72;1722868;82;21718;-41
2021/07/15 06:49:08;;;;;;;4.03;1.85;;;;;;;31.37;42.27;100788.08;1719374;81;21005;-40
2021/07/15 06:51:35;;;;;;;4.17;1.95;;;;;;;31.50;40.07;100787.17;1720610;82;21087;-41
2021/07/15 06:54:02;;;;;;;6.67;2.12;;;;;;;31.52;37.87;100789.19;1691044;83;20913;-41
2021/07/15 06:56:29;;;;;;;3.75;2.20;;;;;;;31.51;36.98;100783.50;1733041;82;22318;-41
2021/07/15 06:58:55;;;;;;;8.38;3.15;;;;;;;31.72;37.47;100786.30;1693815;83;21459;-40
2021/07/15 07:01:22;;;;;;;8.08;2.60;;;;;;;31.87;39.08;100787.05;1708565;82;21485;-41
2021/07/15 07:03:48;;;;;;;5.85;2.80;;;;;;;31.89;39.85;100783.70;1714191;82;20983;-40
2021/07/15 07:06:14;;;;;;;9.03;2.35;;;;;;;31.87;41.08;100779.02;1710846;82;21494;-40
2021/07/15 07:08:43;;;;;;;17.92;2.50;;;;;;;31.91;39.92;100782.56;1715688;82;21620;-41
2021/07/15 07:11:11;;;;;;;10.85;2.60;;;;;;;31.93;38.60;100779.70;1712417;82;20925;-41
2021/07/15 07:13:37;;;;;;;7.67;2.87;;;;;;;31.99;37.32;100772.87;1715868;82;21056;-41
2021/07/15 07:16:06;;;;;;;9.05;2.33;;;;;;;31.89;38.16;100775.67;1713118;82;20936;-40
2021/07/15 07:18:32;;;;;;;5.45;2.30;;;;;;;31.94;37.12;100773.34;1706718;82;20909;-41
2021/07/15 07:21:00;;;;;;;11.28;2.58;;;;;;;32.05;36.60;100770.39;1712238;82;21141;-41
2021/07/15 07:23:26;;;;;;;4.72;2.30;;;;;;;32.16;36.37;100771.08;1718290;82;20941;-41
2021/07/15 07:25:53;;;;;;;9.40;2.55;;;;;;;32.22;36.24;100767.27;1704033;82;21043;-41
2021/07/15 07:28:20;;;;;;;6.83;2.20;;;;;;;32.25;36.05;100766.93;1726341;82;20925;-41
2021/07/15 07:30:46;;;;;;;5.95;2.20;;;;;;;32.36;35.13;100763.66;1726085;82;21012;-41
2021/07/15 07:33:14;;;;;;;8.20;2.35;;;;;;;32.42;34.26;100768.83;1709320;82;21028;-40
2021/07/15 07:35:41;;;;;;;11.60;2.40;;;;;;;32.60;35.20;100763.35;1699470;84;21008;-41
2021/07/15 07:38:10;;;;;;;7.33;2.40;;;;;;;32.65;34.48;100763.69;1705187;82;21667;-41
2021/07/15 07:40:37;;;;;;;5.80;2.60;;;;;;;32.60;35.67;100764.69;1714590;82;20941;-41
2021/07/15 07:43:04;;;;;;;4.53;2.10;;;;;;;32.63;36.38;100764.36;1732222;82;21011;-41
2021/07/15 07:45:31;;;;;;;7.25;2.50;;;;;;;32.71;32.74;100762.16;1674787;84;21226;-40
2021/07/15 07:47:57;;;;;;;8.23;2.20;;;;;;;32.78;33.42;100759.17;1708883;82;20988;-40
2021/07/15 07:50:23;;;;;;;6.08;2.37;;;;;;;32.78;32.30;100757.83;1678684;84;21024;-41
2021/07/15 07:52:50;;;;;;;12.03;2.58;;;;;;;32.66;34.72;100755.47;1725041;82;20973;-41
2021/07/15 07:55:16;;;;;;;20.62;2.52;;;;;;;32.78;34.37;100757.83;1664373;84;20980;-40
2021/07/15 07:57:43;;;;;;;14.95;3.20;;;;;;;33.03;34.27;100757.33;1721068;82;21179;-40
2021/07/15 08:00:14;;;;;;;11.97;2.30;;;;;;;33.12;33.31;100762.18;1684096;83;20985;-41
2021/07/15 08:02:44;;;;;;;4.55;2.00;;;;;;;33.11;34.37;100764.53;1658771;83;21036;-42
2021/07/15 08:05:12;;;;;;;8.18;1.95;;;;;;;33.16;34.49;100765.37;1659957;83;21079;-40
2021/07/15 08:07:39;;;;;;;7.45;2.40;;;;;;;33.10;34.43;100760.17;1685208;83;21438;-39
2021/07/15 08:10:10;;;;;;;9.10;2.42;;;;;;;33.18;33.27;100756.65;1672572;83;21840;-40
2021/07/15 08:12:37;;;;;;;7.30;1.92;;;;;;;33.12;33.53;100755.48;1638296;85;21036;-40
2021/07/15 08:15:06;;;;;;;11.22;1.85;;;;;;;33.23;34.20;100755.63;1680727;83;20999;-41
2021/07/15 08:17:32;;;;;;;5.70;1.92;;;;;;;33.33;32.72;100754.10;1679810;84;21108;-40
2021/07/15 08:20:00;;;;;;;28.20;2.50;;;;;;;33.37;29.62;100754.09;1676022;84;21047;-41
2021/07/15 08:22:26;;;;;;;10.15;1.92;;;;;;;33.62;30.82;100751.36;1684634;83;21170;-41
2021/07/15 08:24:53;;;;;;;3.98;1.70;;;;;;;33.77;30.48;100750.13;1732383;82;20944;-40
2021/07/15 08:27:19;;;;;;;6.92;1.67;;;;;;;33.82;31.49;100747.74;1735428;82;21646;-40
2021/07/15 08:29:46;;;;;;;9.50;1.72;;;;;;;33.86;31.33;100750.44;1730460;80;20987;-41
2021/07/15 08:32:12;;;;;;;7.83;1.50;;;;;;;33.84;30.67;100751.09;1713139;82;20992;-40
2021/07/15 08:34:39;;;;;;;5.65;1.80;;;;;;;34.00;31.64;100747.54;1712929;82;21967;-40
2021/07/15 08:37:05;;;;;;;6.10;1.72;;;;;;;34.20;28.61;100748.41;1730333;82;20980;-40
2021/07/15 08:39:32;;;;;;;9.08;1.87;;;;;;;34.15;30.22;100745.42;1729491;82;21004;-41
2021/07/15 08:41:59;;;;;;;10.20;1.92;;;;;;;34.08;28.71;100743.45;1677278;83;21072;-41
2021/07/15 08:44:26;;;;;;;12.18;1.72;;;;;;;33.93;28.37;100744.69;1682991;84;21005;-41
2021/07/15 08:46:53;;;;;;;10.75;2.20;;;;;;;33.91;31.32;100735.13;1678189;84;21079;-40
2021/07/15 08:49:21;;;;;;;7.90;2.08;;;;;;;34.18;32.35;100735.18;1682606;84;20940;-41
2021/07/15 08:51:48;;;;;;;5.90;1.65;;;;;;;34.48;31.49;100733.98;1675968;83;20976;-41
2021/07/15 08:54:16;;;;;;;9.08;1.90;;;;;;;34.67;30.04;100732.66;1681833;84;20991;-40
2021/07/15 08:56:44;;;;;;;10.23;2.40;;;;;;;34.76;30.51;100731.26;1739768;80;20933;-39
2021/07/15 08:59:16;;;;;;;6.45;2.10;;;;;;;34.86;30.11;100733.17;1732062;82;21062;-41
2021/07/15 09:01:46;;;;;;;13.08;2.67;;;;;;;34.93;29.46;100734.09;1725172;82;21644;-40
2021/07/15 09:04:13;;;;;;;16.20;2.25;;;;;;;34.92;28.01;100743.18;1720182;82;21058;-40
2021/07/15 09:06:41;;;;;;;15.08;2.00;;;;;;;34.60;29.35;100733.55;1731043;82;21373;-41
2021/07/15 09:09:09;;;;;;;7.62;2.00;;;;;;;34.37;30.06;100725.81;1723768;80;20983;-42
2021/07/15 09:11:41;;;;;;;6.28;1.75;;;;;;;34.45;32.91;100731.63;1730307;80;21028;-41
2021/07/15 09:14:19;;;;;;;16.90;1.80;;;;;;;34.74;29.82;100730.61;1733203;80;20996;-41
2021/07/15 09:16:53;;;;;;;9.75;2.00;;;;;;;34.98;28.29;100726.84;1737817;81;21782;-40
2021/07/15 09:19:26;;;;;;;4.67;1.50;;;;;;;35.27;28.98;100724.39;1721688;82;20976;-40
2021/07/15 09:21:50;;;;;;;9.33;1.85;;;;;;;35.44;28.62;100733.11;1722437;82;21023;-40
2021/07/15 09:24:39;;;;;;;7.65;1.75;;;;;;;35.65;28.77;100727.83;1723327;82;21106;-41
2021/07/15 09:27:22;;;;;;;4.85;1.72;;;;;;;35.74;28.22;100728.53;1714329;82;20984;-40
2021/07/15 09:30:13;;;;;;;7.50;1.37;;;;;;;35.86;27.21;100729.41;1726928;82;21007;-42
2021/07/15 09:32:56;;;;;;;5.70;1.62;;;;;;;36.06;27.01;100725.12;1703764;82;20976;-41
2021/07/15 09:35:40;;;;;;;14.95;1.55;;;;;;;36.16;25.64;100719.92;1728855;82;21048;-40
2021/07/15 09:38:24;;;;;;;7.05;1.60;;;;;;;36.14;24.62;100727.36;1727475;82;21551;-42
2021/07/15 09:41:00;;;;;;;7.60;1.98;;;;;;;36.06;26.29;100722.42;1702919;82;20945;-43
2021/07/15 09:43:32;;;;;;;10.80;2.00;;;;;;;36.03;26.58;100722.81;1718023;82;21621;-41
2021/07/15 09:46:02;;;;;;;18.05;2.12;;;;;;;35.78;26.41;100724.47;1712834;82;21039;-40
2021/07/15 09:48:31;;;;;;;16.60;1.75;;;;;;;35.67;26.56;100722.24;1719542;82;20988;-42
2021/07/15 09:50:59;;;;;;;7.80;1.50;;;;;;;35.78;27.61;100721.77;1724169;82;21132;-40
2021/07/15 09:53:30;;;;;;;12.05;1.95;;;;;;;35.79;23.63;100719.41;1711732;82;21491;-41
2021/07/15 09:56:08;;;;;;;12.58;1.72;;;;;;;35.66;24.12;100720.08;1722639;82;20988;-42
2021/07/15 09:58:40;;;;;;;14.50;2.10;;;;;;;35.80;26.95;100721.08;1703258;82;21020;-42
2021/07/15 10:01:12;;;;;;;14.43;1.97;;;;;;;35.96;26.73;100719.16;1712659;82;20952;-41
2021/07/15 10:03:44;;;;;;;11.00;2.17;;;;;;;35.98;25.51;100710.38;1721917;82;21106;-42
2021/07/15 10:06:13;;;;;;;10.23;2.10;;;;;;;35.76;25.58;100713.06;1722373;82;20996;-40
2021/07/15 10:08:42;;;;;;;11.00;1.85;;;;;;;35.64;25.32;100704.64;1727838;82;20937;-41
2021/07/15 10:11:26;;;;;;;13.53;2.00;;;;;;;35.83;27.44;100708.26;1675880;84;21526;-42
2021/07/15 10:14:06;;;;;;;11.85;2.10;;;;;;;35.93;26.26;100715.00;1727290;82;20962;-40
2021/07/15 10:16:36;;;;;;;16.85;2.12;;;;;;;35.77;25.04;100707.15;1685084;83;21036;-41
2021/07/15 10:19:04;;;;;;;10.25;1.87;;;;;;;35.65;26.02;100698.73;1706229;82;21211;-40
2021/07/15 10:21:34;;;;;;;56.92;4.37;;;;;;;35.78;25.60;100698.89;1719040;82;21565;-41
2021/07/15 10:24:17;;;;;;;52.35;3.20;;;;;;;35.88;26.00;100700.44;1717487;82;21036;-40
2021/07/15 10:26:48;;;;;;;12.35;1.70;;;;;;;35.76;24.59;100700.95;1708464;82;20978;-40
2021/07/15 10:29:17;;;;;;;9.53;1.40;;;;;;;35.49;24.00;100695.19;1721302;82;21015;-40
2021/07/15 10:31:44;;;;;;;11.08;1.80;;;;;;;35.56;23.14;100695.83;1708236;82;20992;-39
2021/07/15 10:34:11;;;;;;;49.18;3.77;;;;;;;35.46;25.73;100698.25;1702289;82;21088;-40
2021/07/15 10:36:40;;;;;;;20.92;2.10;;;;;;;35.60;27.59;100693.08;1722353;82;21663;-41
2021/07/15 10:39:11;;;;;;;23.95;3.30;;;;;;;35.84;26.44;100689.73;1721554;82;21028;-40
2021/07/15 10:41:38;;;;;;;17.23;2.45;;;;;;;36.13;25.75;100687.48;1715196;82;21116;-39
2021/07/15 10:44:06;;;;;;;13.78;1.57;;;;;;;36.46;25.66;100691.48;1716150;83;20983;-40
2021/07/15 10:46:34;;;;;;;23.45;2.27;;;;;;;36.75;25.42;100681.58;1695508;83;21099;-41
2021/07/15 10:49:04;;;;;;;30.08;2.72;;;;;;;37.00;24.85;100674.37;1712219;82;20971;-41
2021/07/15 10:51:31;;;;;;;17.55;1.50;;;;;;;36.84;23.68;100677.72;1725718;82;21529;-40
2021/07/15 10:53:57;;;;;;;17.17;1.95;;;;;;;36.34;25.14;100684.44;1718398;82;21037;-40
2021/07/15 10:56:24;;;;;;;4.85;1.20;;;;;;;36.14;26.36;100681.58;1727431;82;20988;-40
2021/07/15 10:58:53;;;;;;;12.73;1.40;;;;;;;36.06;24.39;100683.38;1716174;82;20936;-40
2021/07/15 11:01:37;;;;;;;6.97;1.57;;;;;;;36.12;26.00;100681.75;1681281;83;21542;-41
2021/07/15 11:04:21;;;;;;;7.15;1.37;;;;;;;36.16;23.56;100675.48;1705066;83;21019;-39
2021/07/15 11:06:53;;;;;;;5.83;1.50;;;;;;;36.24;24.96;100674.84;1689203;83;21157;-41
2021/07/15 11:09:29;;;;;;;12.53;1.82;;;;;;;36.34;24.84;100670.48;1710629;83;21486;-41
2021/07/15 11:11:57;;;;;;;2.27;1.40;;;;;;;36.53;24.55;100674.38;1712408;83;20956;-41
2021/07/15 11:14:44;;;;;;;8.78;1.45;;;;;;;36.78;24.53;100667.20;1682489;83;21580;-40
2021/07/15 11:17:25;;;;;;;6.72;1.50;;;;;;;37.05;23.88;100662.53;1688937;83;21039;-41
2021/07/15 11:20:28;;;;;;;6.60;1.40;;;;;;;37.22;23.26;100666.55;1702778;83;21102;-41
2021/07/15 11:23:00;;;;;;;23.02;2.35;;;;;;;37.31;23.79;100665.05;1712007;83;21538;-41
2021/07/15 11:25:42;;;;;;;6.22;1.45;;;;;;;37.37;23.99;100665.05;1705370;83;21023;-41
2021/07/15 11:28:20;;;;;;;16.57;1.72;;;;;;;37.30;22.72;100666.08;1710520;83;22262;-40
2021/07/15 11:30:50;;;;;;;15.40;1.72;;;;;;;37.39;23.87;100658.11;1673310;83;21011;-40